Time;durP1;ratioP1;P1;durP2;ratioP2;P2;SDS_P1;SDS_P2;PMS_P1;PMS_P2;Temp;Humidity;BMP_temperature;BMP_pressure;BME280_temperature;BME280_humidity;BME280_pressure;Samples;Min_cycle;Max_cycle;Signal;HPM_P1;HPM_P2
2024/01/17 00:04:14;;;;;;;19.27;15.17;;;-0.60;99.90;;;;;;5018963;28;20536;-61
2024/01/17 00:06:42;;;;;;;16.37;14.17;;;-0.60;99.90;;;;;;5013796;28;20537;-60
2024/01/17 00:09:11;;;;;;;18.23;14.30;;;-0.60;99.90;;;;;;5013664;28;20467;-61
2024/01/17 00:11:40;;;;;;;20.77;15.37;;;-0.60;99.90;;;;;;5014026;28;20809;-61
2024/01/17 00:14:14;;;;;;;18.47;14.50;;;-0.60;99.90;;;;;;5016998;28;20475;-61
2024/01/17 00:16:55;;;;;;;18.67;15.03;;;-0.60;99.90;;;;;;5014147;28;21256;-61
2024/01/17 00:19:25;;;;;;;18.43;15.00;;;-0.60;99.90;;;;;;5009030;28;20472;-61
2024/01/17 00:21:53;;;;;;;19.00;14.77;;;-0.60;99.90;;;;;;5020201;28;20538;-61
2024/01/17 00:24:21;;;;;;;19.40;14.97;;;-0.60;99.90;;;;;;5016622;28;20482;-61
2024/01/17 00:26:49;;;;;;;17.53;15.30;;;-0.60;99.90;;;;;;5014478;28;20472;-61
2024/01/17 00:29:17;;;;;;;18.90;15.50;;;-0.60;99.90;;;;;;5029954;28;20486;-60
2024/01/17 00:31:45;;;;;;;20.27;15.80;;;-0.60;99.90;;;;;;5022990;28;21069;-60
2024/01/17 00:34:13;;;;;;;16.27;14.50;;;-0.60;99.90;;;;;;5021299;28;20880;-60
2024/01/17 00:36:42;;;;;;;17.10;15.07;;;-0.60;99.90;;;;;;5019170;28;20472;-61
2024/01/17 00:39:13;;;;;;;16.50;14.70;;;-0.60;99.90;;;;;;5011484;28;21492;-59
2024/01/17 00:41:41;;;;;;;17.20;14.90;;;-0.70;99.90;;;;;;5015389;28;20502;-61
2024/01/17 00:44:14;;;;;;;19.60;15.17;;;-0.70;99.90;;;;;;5013192;28;20985;-61
2024/01/17 00:46:42;;;;;;;17.27;14.20;;;-0.70;99.90;;;;;;5019847;28;20475;-61
2024/01/17 00:49:10;;;;;;;19.20;14.17;;;-0.70;99.90;;;;;;5015034;28;20475;-61
2024/01/17 00:51:38;;;;;;;17.73;14.87;;;-0.70;99.90;;;;;;5009189;28;20805;-61
2024/01/17 00:54:09;;;;;;;17.67;14.00;;;-0.70;99.90;;;;;;5007687;28;20956;-61
2024/01/17 00:56:38;;;;;;;17.63;14.93;;;-0.70;99.90;;;;;;5013585;28;20586;-61
2024/01/17 00:59:06;;;;;;;16.03;14.10;;;-0.70;99.90;;;;;;5012902;28;21048;-61
2024/01/17 01:01:34;;;;;;;17.63;14.77;;;-0.70;99.90;;;;;;5014544;28;20611;-60
2024/01/17 01:04:02;;;;;;;15.10;13.57;;;-0.70;99.90;;;;;;5011107;28;20575;-61
2024/01/17 01:06:30;;;;;;;18.83;15.10;;;-0.60;99.90;;;;;;5012739;28;20923;-60
2024/01/17 01:08:58;;;;;;;17.27;14.13;;;-0.60;99.90;;;;;;5008677;28;20491;-61
2024/01/17 01:11:32;;;;;;;17.80;14.07;;;-0.60;99.90;;;;;;5007539;28;20491;-61
2024/01/17 01:14:00;;;;;;;14.97;13.30;;;-0.60;99.90;;;;;;5014201;28;20475;-61
2024/01/17 01:16:28;;;;;;;19.23;13.60;;;-0.60;99.90;;;;;;5014747;28;21243;-62
2024/01/17 01:18:56;;;;;;;15.70;13.63;;;-0.50;99.90;;;;;;5016872;28;20487;-61
2024/01/17 01:21:24;;;;;;;19.30;14.60;;;-0.50;99.90;;;;;;5010736;28;21513;-61
2024/01/17 01:23:52;;;;;;;15.93;13.90;;;-0.50;99.90;;;;;;5010638;28;20473;-61
2024/01/17 01:26:20;;;;;;;15.50;12.73;;;-0.50;99.90;;;;;;5007974;28;20467;-62
2024/01/17 01:28:49;;;;;;;15.30;13.27;;;-0.50;99.90;;;;;;5014518;28;20613;-61
2024/01/17 01:31:17;;;;;;;16.73;13.30;;;-0.50;99.90;;;;;;5005661;28;20499;-60
2024/01/17 01:33:46;;;;;;;18.10;13.60;;;-0.50;99.90;;;;;;5021421;28;20489;-61
2024/01/17 01:36:14;;;;;;;14.40;12.87;;;-0.50;99.90;;;;;;5023311;28;20468;-61
2024/01/17 01:38:42;;;;;;;15.80;13.20;;;-0.50;99.90;;;;;;5019252;28;20483;-61
2024/01/17 01:41:10;;;;;;;17.20;13.20;;;-0.50;99.90;;;;;;5016720;28;20495;-61
2024/01/17 01:43:38;;;;;;;16.97;13.53;;;-0.50;99.90;;;;;;5023322;28;20467;-61
2024/01/17 01:46:15;;;;;;;17.57;13.70;;;-0.50;99.90;;;;;;5015543;28;20493;-61
2024/01/17 01:48:44;;;;;;;19.10;13.57;;;-0.50;99.90;;;;;;5016011;28;20561;-61
2024/01/17 01:51:12;;;;;;;16.27;13.30;;;-0.50;99.90;;;;;;5015178;28;20495;-61
2024/01/17 01:53:43;;;;;;;15.90;14.20;;;-0.50;99.90;;;;;;5017219;28;20645;-61
2024/01/17 01:56:12;;;;;;;19.07;14.37;;;-0.40;99.90;;;;;;5017492;28;20468;-61
2024/01/17 01:58:43;;;;;;;16.33;13.40;;;-0.40;99.90;;;;;;5009959;28;20731;-61
2024/01/17 02:01:12;;;;;;;16.00;12.87;;;-0.40;99.90;;;;;;5005224;28;20499;-61
2024/01/17 02:03:43;;;;;;;18.37;13.10;;;-0.40;99.90;;;;;;5014205;28;20479;-61
2024/01/17 02:06:13;;;;;;;18.73;14.00;;;-0.40;99.90;;;;;;5007892;28;20465;-61
2024/01/17 02:08:41;;;;;;;17.20;14.27;;;-0.40;99.90;;;;;;5008551;28;20515;-61
2024/01/17 02:11:10;;;;;;;16.90;14.43;;;-0.40;99.90;;;;;;5007023;28;20575;-60
2024/01/17 02:13:38;;;;;;;16.83;14.00;;;-0.40;99.90;;;;;;5013672;28;20948;-61
2024/01/17 02:16:07;;;;;;;15.40;13.13;;;-0.40;99.90;;;;;;5011527;28;20477;-61
2024/01/17 02:18:36;;;;;;;16.33;13.73;;;-0.40;99.90;;;;;;5016753;28;20474;-61
2024/01/17 02:21:06;;;;;;;16.90;13.40;;;-0.40;99.90;;;;;;5016538;28;20945;-61
2024/01/17 02:23:35;;;;;;;15.27;13.50;;;-0.40;99.90;;;;;;5014988;28;20999;-62
2024/01/17 02:26:04;;;;;;;18.60;14.10;;;-0.40;99.90;;;;;;5016912;28;20480;-61
2024/01/17 02:28:32;;;;;;;18.87;14.90;;;-0.40;99.90;;;;;;5015236;28;20504;-61
2024/01/17 02:31:01;;;;;;;18.37;13.20;;;-0.50;99.90;;;;;;5005182;28;20882;-60
2024/01/17 02:33:29;;;;;;;15.70;13.30;;;-0.50;99.90;;;;;;5012048;28;21121;-61
2024/01/17 02:35:57;;;;;;;15.33;13.50;;;-0.50;99.90;;;;;;5014277;28;20474;-61
2024/01/17 02:38:25;;;;;;;18.93;14.87;;;-0.50;99.90;;;;;;5017586;28;20557;-61
2024/01/17 02:40:53;;;;;;;18.20;13.70;;;-0.50;99.90;;;;;;5012091;28;20491;-61
2024/01/17 02:43:23;;;;;;;15.70;13.70;;;-0.60;99.90;;;;;;5016441;28;20549;-61
2024/01/17 02:45:51;;;;;;;16.90;12.90;;;-0.60;99.90;;;;;;5039920;28;20463;-60
2024/01/17 02:48:18;;;;;;;16.20;13.33;;;-0.60;99.90;;;;;;5040424;28;20946;-61
2024/01/17 02:50:47;;;;;;;14.40;12.57;;;-0.60;99.90;;;;;;5025362;28;20491;-61
2024/01/17 02:53:15;;;;;;;16.50;14.30;;;-0.60;99.90;;;;;;5020702;28;20487;-60
2024/01/17 02:55:43;;;;;;;15.17;12.37;;;-0.60;99.90;;;;;;5016374;28;20855;-61
2024/01/17 02:58:11;;;;;;;13.10;11.70;;;-0.50;99.90;;;;;;5021825;28;20905;-61
2024/01/17 03:00:42;;;;;;;15.93;13.10;;;-0.60;99.90;;;;;;5017400;28;20573;-59
2024/01/17 03:03:10;;;;;;;16.10;12.57;;;-0.50;99.90;;;;;;5021203;28;21016;-61
2024/01/17 03:05:38;;;;;;;15.10;12.60;;;-0.60;99.90;;;;;;5014352;28;20514;-61
2024/01/17 03:08:08;;;;;;;13.63;12.20;;;-0.60;99.90;;;;;;5021502;28;20928;-60
2024/01/17 03:10:36;;;;;;;18.27;11.83;;;-0.60;99.90;;;;;;5016216;28;20667;-61
2024/01/17 03:13:04;;;;;;;16.00;11.83;;;-0.60;99.90;;;;;;5022573;28;20584;-61
2024/01/17 03:15:41;;;;;;;15.37;12.30;;;-0.60;99.90;;;;;;5018025;28;20470;-61
2024/01/17 03:18:13;;;;;;;15.47;12.80;;;-0.60;99.90;;;;;;5017904;28;21475;-61
2024/01/17 03:20:41;;;;;;;17.40;12.80;;;-0.60;99.90;;;;;;5015083;28;21049;-61
2024/01/17 03:23:09;;;;;;;15.93;12.90;;;-0.60;99.90;;;;;;5019216;28;20798;-61
2024/01/17 03:25:37;;;;;;;17.53;13.20;;;-0.60;99.90;;;;;;5020656;28;20474;-61
2024/01/17 03:28:05;;;;;;;15.43;13.13;;;-0.60;99.90;;;;;;5014806;28;20497;-61
2024/01/17 03:30:34;;;;;;;14.73;12.60;;;-0.60;99.90;;;;;;5017936;28;20574;-61
2024/01/17 03:33:04;;;;;;;16.53;12.70;;;-0.60;99.90;;;;;;5016371;28;20505;-61
2024/01/17 03:35:32;;;;;;;19.80;13.53;;;-0.60;99.90;;;;;;5024585;28;20498;-61
2024/01/17 03:38:00;;;;;;;18.30;13.30;;;-0.60;99.90;;;;;;5024472;28;20901;-61
2024/01/17 03:40:28;;;;;;;15.03;12.83;;;-0.60;99.90;;;;;;5023417;28;20485;-61
2024/01/17 03:42:56;;;;;;;16.57;13.33;;;-0.60;99.90;;;;;;5021190;28;21022;-61
2024/01/17 03:45:24;;;;;;;14.60;12.47;;;-0.70;99.90;;;;;;5021493;28;20844;-61
2024/01/17 03:47:52;;;;;;;16.60;12.93;;;-0.70;99.90;;;;;;5014977;28;21015;-59
2024/01/17 03:50:23;;;;;;;15.30;12.40;;;-0.70;99.90;;;;;;5015925;28;20494;-61
2024/01/17 03:52:51;;;;;;;14.40;12.90;;;-0.70;99.90;;;;;;5008817;28;20527;-60
2024/01/17 03:55:19;;;;;;;16.50;13.40;;;-0.60;99.90;;;;;;5014535;28;20967;-61
2024/01/17 03:57:47;;;;;;;16.23;13.53;;;-0.60;99.90;;;;;;5023007;28;20473;-61
2024/01/17 04:00:16;;;;;;;18.20;14.00;;;-0.70;99.90;;;;;;5014095;28;20529;-59
2024/01/17 04:02:44;;;;;;;15.90;13.87;;;-0.70;99.90;;;;;;5017345;28;20491;-61
2024/01/17 04:05:22;;;;;;;20.10;13.67;;;-0.70;99.90;;;;;;5018639;28;20475;-61
2024/01/17 04:07:50;;;;;;;15.00;13.17;;;-0.70;99.90;;;;;;5020237;28;20567;-61
2024/01/17 04:10:18;;;;;;;14.80;13.10;;;-0.80;99.90;;;;;;5015389;28;20563;-61
2024/01/17 04:12:46;;;;;;;19.63;14.53;;;-0.80;99.90;;;;;;5016840;28;20489;-61
2024/01/17 04:15:14;;;;;;;19.23;14.10;;;-0.80;99.90;;;;;;5014457;28;21007;-60
2024/01/17 04:17:42;;;;;;;19.90;13.70;;;-0.80;99.90;;;;;;5017642;28;20463;-61
2024/01/17 04:20:11;;;;;;;16.57;13.37;;;-0.90;99.90;;;;;;5012616;28;20487;-61
2024/01/17 04:22:40;;;;;;;17.60;13.80;;;-0.90;99.90;;;;;;5019228;28;21003;-60
2024/01/17 04:25:09;;;;;;;17.50;13.50;;;-0.90;99.90;;;;;;5018406;28;20558;-61
2024/01/17 04:27:37;;;;;;;16.73;13.80;;;-0.90;99.90;;;;;;5015207;28;20562;-60
2024/01/17 04:30:06;;;;;;;19.30;14.50;;;-0.90;99.90;;;;;;5016334;28;20555;-64
2024/01/17 04:32:36;;;;;;;17.77;13.27;;;-1.00;99.90;;;;;;5017078;28;20515;-61
2024/01/17 04:35:04;;;;;;;18.60;13.37;;;-1.00;99.90;;;;;;5012631;28;20606;-61
2024/01/17 04:37:32;;;;;;;16.70;13.33;;;-1.00;99.90;;;;;;5014550;28;20510;-61
2024/01/17 04:40:02;;;;;;;16.90;14.17;;;-1.00;99.90;;;;;;5017904;28;20499;-61
2024/01/17 04:42:30;;;;;;;17.27;13.90;;;-1.00;99.90;;;;;;5014109;28;20592;-61
2024/01/17 04:44:58;;;;;;;18.60;12.80;;;-1.10;99.90;;;;;;5009917;28;20478;-61
2024/01/17 04:47:26;;;;;;;18.17;13.67;;;-1.10;99.90;;;;;;5011176;28;20483;-61
2024/01/17 04:49:54;;;;;;;16.70;13.77;;;-1.10;99.90;;;;;;5017213;28;20968;-61
2024/01/17 04:52:22;;;;;;;16.33;12.67;;;-1.10;99.90;;;;;;5016376;28;20658;-61
2024/01/17 04:54:50;;;;;;;18.20;14.23;;;-1.10;99.90;;;;;;5016988;28;20522;-61
2024/01/17 04:57:19;;;;;;;18.10;14.07;;;-1.10;99.90;;;;;;5013160;28;20563;-61
2024/01/17 04:59:47;;;;;;;16.10;12.07;;;-1.10;99.90;;;;;;5019650;28;20470;-60
2024/01/17 05:02:15;;;;;;;20.50;12.50;;;-1.10;99.90;;;;;;5030067;28;20487;-60
2024/01/17 05:04:44;;;;;;;19.50;13.50;;;-1.10;99.90;;;;;;5042943;28;20522;-61
2024/01/17 05:07:12;;;;;;;16.87;12.37;;;-1.10;99.90;;;;;;5021509;28;20491;-60
2024/01/17 05:09:40;;;;;;;14.37;11.50;;;-1.10;99.90;;;;;;5017784;28;20845;-60
2024/01/17 05:12:09;;;;;;;20.93;12.70;;;-1.20;99.90;;;;;;5018183;28;20479;-61
2024/01/17 05:14:41;;;;;;;17.73;12.17;;;-1.20;99.90;;;;;;5017490;28;20658;-61
2024/01/17 05:17:09;;;;;;;17.40;12.60;;;-1.20;99.90;;;;;;5009872;28;21051;-61
2024/01/17 05:19:37;;;;;;;18.83;12.60;;;-1.30;99.90;;;;;;5013194;28;20545;-61
2024/01/17 05:22:06;;;;;;;16.97;12.73;;;-1.30;99.90;;;;;;5016245;28;20506;-60
2024/01/17 05:24:34;;;;;;;18.17;12.80;;;-1.20;99.90;;;;;;5009301;28;20570;-61
2024/01/17 05:27:02;;;;;;;17.77;12.27;;;-1.20;99.90;;;;;;5017425;28;20546;-60
2024/01/17 05:29:34;;;;;;;20.33;13.30;;;-1.30;99.90;;;;;;5019824;28;20539;-60
2024/01/17 05:32:04;;;;;;;18.00;11.87;;;-1.30;99.90;;;;;;5006723;28;20491;-61
2024/01/17 05:34:32;;;;;;;15.07;12.00;;;-1.20;99.90;;;;;;5012373;28;20581;-61
2024/01/17 05:37:02;;;;;;;14.50;12.37;;;-1.20;99.90;;;;;;5022750;28;21024;-61
2024/01/17 05:39:30;;;;;;;15.63;12.70;;;-1.20;99.90;;;;;;5018784;28;20579;-61
2024/01/17 05:41:58;;;;;;;17.80;12.17;;;-1.20;99.90;;;;;;5010835;28;20889;-61
2024/01/17 05:44:26;;;;;;;17.77;11.90;;;-1.20;99.90;;;;;;5017084;28;20507;-61
2024/01/17 05:46:54;;;;;;;15.83;12.77;;;-1.20;99.90;;;;;;5014248;28;20467;-60
2024/01/17 05:49:24;;;;;;;14.27;12.07;;;-1.20;99.90;;;;;;5016833;28;20547;-61
2024/01/17 05:51:52;;;;;;;18.53;13.10;;;-1.20;99.90;;;;;;5018183;28;20487;-61
2024/01/17 05:54:20;;;;;;;17.07;13.17;;;-1.20;99.90;;;;;;5013591;28;20520;-60
2024/01/17 05:56:48;;;;;;;14.83;12.40;;;-1.20;99.90;;;;;;5016351;28;20980;-60
2024/01/17 05:59:16;;;;;;;16.83;12.40;;;-1.20;99.90;;;;;;5005667;28;20483;-63
2024/01/17 06:01:44;;;;;;;15.70;12.40;;;-1.10;99.90;;;;;;5006326;28;20879;-61
2024/01/17 06:04:12;;;;;;;14.23;12.47;;;-1.10;99.90;;;;;;5007108;28;20956;-66
2024/01/17 06:06:41;;;;;;;14.90;12.30;;;-1.10;99.90;;;;;;5008237;28;20569;-60
2024/01/17 06:09:10;;;;;;;14.97;12.47;;;-1.10;99.90;;;;;;5015155;28;20545;-61
2024/01/17 06:11:38;;;;;;;15.30;11.90;;;-1.00;99.90;;;;;;5005353;28;20506;-60
2024/01/17 06:14:06;;;;;;;14.70;11.90;;;-1.00;99.90;;;;;;5015539;28;20499;-60
2024/01/17 06:16:34;;;;;;;16.60;11.70;;;-1.00;99.90;;;;;;5002909;28;20603;-61
2024/01/17 06:19:02;;;;;;;16.30;11.30;;;-0.90;99.90;;;;;;4989839;28;20495;-61
2024/01/17 06:21:30;;;;;;;12.63;11.33;;;-0.90;99.90;;;;;;4994796;28;20499;-59
2024/01/17 06:24:00;;;;;;;14.60;11.77;;;-0.90;99.90;;;;;;4997026;28;20474;-61
2024/01/17 06:26:28;;;;;;;14.40;11.33;;;-0.90;99.90;;;;;;4995872;28;20479;-59
2024/01/17 06:28:56;;;;;;;14.40;12.40;;;-0.80;99.90;;;;;;5001863;28;20936;-61
2024/01/17 06:31:25;;;;;;;14.33;11.20;;;-0.80;99.90;;;;;;5006964;28;20491;-61
2024/01/17 06:33:53;;;;;;;14.47;11.40;;;-0.80;99.90;;;;;;5010475;28;21166;-61
2024/01/17 06:36:22;;;;;;;15.40;11.13;;;-0.80;99.90;;;;;;5006272;28;20498;-61
2024/01/17 06:38:50;;;;;;;13.70;11.60;;;-0.80;99.90;;;;;;5001578;28;20707;-62
2024/01/17 06:41:20;;;;;;;12.63;10.80;;;-0.80;99.90;;;;;;4999434;28;20534;-61
2024/01/17 06:43:48;;;;;;;11.83;10.50;;;-0.80;99.90;;;;;;5009222;28;20537;-59
2024/01/17 06:46:16;;;;;;;14.03;10.73;;;-0.80;99.90;;;;;;5003744;28;20988;-61
2024/01/17 06:48:44;;;;;;;13.57;10.60;;;-0.80;99.90;;;;;;5008794;28;20471;-61
2024/01/17 06:51:16;;;;;;;16.67;11.50;;;-0.80;99.90;;;;;;4998779;28;22272;-61
2024/01/17 06:53:44;;;;;;;12.33;9.80;;;-0.80;99.90;;;;;;5004837;28;20560;-59
2024/01/17 06:56:12;;;;;;;14.30;10.70;;;-0.80;99.90;;;;;;5007552;28;21204;-61
2024/01/17 06:58:42;;;;;;;17.80;10.87;;;-0.80;99.90;;;;;;5013971;28;20574;-61
2024/01/17 07:01:10;;;;;;;14.33;11.33;;;-0.80;99.90;;;;;;5001271;28;21857;-58
2024/01/17 07:03:38;;;;;;;12.00;10.20;;;-0.70;99.90;;;;;;5010503;28;20525;-61
2024/01/17 07:06:06;;;;;;;11.17;9.10;;;-0.70;99.90;;;;;;5010616;28;20545;-61
2024/01/17 07:08:34;;;;;;;11.90;9.43;;;-0.70;99.90;;;;;;5008977;28;20768;-61
2024/01/17 07:11:03;;;;;;;12.67;9.50;;;-0.70;99.90;;;;;;5013936;28;20487;-61
2024/01/17 07:13:31;;;;;;;12.43;9.27;;;-0.70;99.90;;;;;;5011598;28;20603;-62
2024/01/17 07:16:02;;;;;;;10.33;8.53;;;-0.70;99.90;;;;;;5014758;28;20490;-61
2024/01/17 07:18:30;;;;;;;11.00;9.20;;;-0.70;99.90;;;;;;5035532;28;20479;-61
2024/01/17 07:20:58;;;;;;;15.30;9.90;;;-0.70;99.90;;;;;;5027124;28;20495;-61
2024/01/17 07:23:26;;;;;;;11.20;10.00;;;-0.70;99.90;;;;;;5016151;28;20467;-61
2024/01/17 07:25:54;;;;;;;11.27;8.63;;;-0.70;99.90;;;;;;5018446;28;20471;-62
2024/01/17 07:28:22;;;;;;;10.33;8.60;;;-0.70;99.90;;;;;;5012605;28;20487;-62
2024/01/17 07:30:50;;;;;;;12.30;9.37;;;-0.70;99.90;;;;;;5017914;28;20606;-62
2024/01/17 07:33:19;;;;;;;10.93;7.80;;;-0.70;99.90;;;;;;5021125;28;20614;-61
2024/01/17 07:35:48;;;;;;;10.13;7.70;;;-0.70;99.90;;;;;;5022618;28;20550;-62
2024/01/17 07:38:16;;;;;;;8.67;7.63;;;-0.70;99.90;;;;;;5022896;28;22273;-62
2024/01/17 07:40:44;;;;;;;10.00;7.87;;;-0.70;99.90;;;;;;5025299;28;20586;-61
2024/01/17 07:43:12;;;;;;;10.20;7.60;;;-0.70;99.90;;;;;;5022088;28;20563;-62
2024/01/17 07:45:40;;;;;;;8.70;7.80;;;-0.70;99.90;;;;;;5015157;28;20513;-61
2024/01/17 07:48:08;;;;;;;14.27;7.57;;;-0.70;99.90;;;;;;5010681;28;20562;-61
2024/01/17 07:50:39;;;;;;;9.27;7.93;;;-0.60;99.90;;;;;;5015593;28;20926;-62
2024/01/17 07:53:07;;;;;;;9.53;8.07;;;-0.70;99.90;;;;;;5010794;28;20467;-61
2024/01/17 07:55:35;;;;;;;7.80;7.07;;;-0.60;99.90;;;;;;5017670;28;20495;-61
2024/01/17 07:58:04;;;;;;;9.40;6.70;;;-0.60;99.90;;;;;;5008607;28;20472;-61
2024/01/17 08:00:32;;;;;;;8.87;6.63;;;-0.60;99.90;;;;;;5016311;28;20532;-61
2024/01/17 08:03:00;;;;;;;10.20;7.57;;;-0.60;99.90;;;;;;5014154;28;20491;-62
2024/01/17 08:05:29;;;;;;;9.57;7.43;;;-0.60;99.90;;;;;;5022450;28;20474;-62
2024/01/17 08:07:58;;;;;;;7.07;6.00;;;-0.60;99.90;;;;;;5006389;28;20972;-62
2024/01/17 08:10:26;;;;;;;10.73;7.13;;;-0.60;99.90;;;;;;5012253;28;20506;-62
2024/01/17 08:12:55;;;;;;;10.00;7.10;;;-0.60;99.90;;;;;;5018788;28;21287;-62
2024/01/17 08:15:23;;;;;;;8.47;7.17;;;-0.60;99.90;;;;;;5018095;28;20499;-61
2024/01/17 08:17:51;;;;;;;8.43;6.63;;;-0.60;99.90;;;;;;5016668;28;20570;-62
2024/01/17 08:20:19;;;;;;;12.13;6.93;;;-0.60;99.90;;;;;;5016333;28;20503;-62
2024/01/17 08:22:47;;;;;;;10.40;6.57;;;-0.50;99.90;;;;;;5013154;28;20527;-62
2024/01/17 08:25:17;;;;;;;7.80;6.60;;;-0.50;99.90;;;;;;5017806;28;20470;-63
2024/01/17 08:27:45;;;;;;;7.40;6.40;;;-0.50;99.90;;;;;;5014511;28;20557;-61
2024/01/17 08:30:14;;;;;;;7.60;6.50;;;-0.50;99.90;;;;;;5016124;28;20479;-61
2024/01/17 08:32:42;;;;;;;7.10;6.40;;;-0.50;99.90;;;;;;5012670;28;20495;-61
2024/01/17 08:35:12;;;;;;;8.37;6.30;;;-0.50;99.90;;;;;;5014393;28;20460;-61
2024/01/17 08:37:42;;;;;;;8.20;5.70;;;-0.50;99.90;;;;;;5012490;28;20606;-61
2024/01/17 08:40:11;;;;;;;8.53;6.03;;;-0.50;99.90;;;;;;5020819;28;20475;-61
2024/01/17 08:42:44;;;;;;;9.63;6.07;;;-0.50;99.90;;;;;;5009468;28;20494;-61
2024/01/17 08:45:12;;;;;;;7.80;6.20;;;-0.50;99.90;;;;;;5007588;28;20507;-61
2024/01/17 08:47:42;;;;;;;9.40;5.63;;;-0.40;99.90;;;;;;5011236;28;20474;-60
2024/01/17 08:50:10;;;;;;;6.87;5.07;;;-0.40;99.90;;;;;;5013272;28;20994;-61
2024/01/17 08:52:38;;;;;;;6.10;4.97;;;-0.30;99.90;;;;;;5010666;28;20960;-60
2024/01/17 08:55:08;;;;;;;6.73;5.20;;;-0.30;99.90;;;;;;5014321;28;21358;-61
2024/01/17 08:57:37;;;;;;;6.33;4.60;;;-0.30;99.90;;;;;;5011185;28;20467;-61
2024/01/17 09:00:09;;;;;;;6.83;4.90;;;-0.30;99.90;;;;;;5009007;28;20522;-61
2024/01/17 09:02:37;;;;;;;5.70;5.00;;;-0.30;99.90;;;;;;5015030;28;20499;-61
2024/01/17 09:05:06;;;;;;;8.50;5.07;;;-0.30;99.90;;;;;;5015759;28;20873;-60
2024/01/17 09:07:35;;;;;;;6.17;5.00;;;-0.20;99.90;;;;;;5017362;28;20489;-62
2024/01/17 09:10:04;;;;;;;6.90;4.70;;;-0.20;99.90;;;;;;5019564;28;20791;-60
2024/01/17 09:12:32;;;;;;;6.00;5.10;;;-0.10;99.90;;;;;;5014908;28;20499;-62
2024/01/17 09:15:00;;;;;;;9.73;5.60;;;-0.10;99.90;;;;;;5010062;28;21052;-62
2024/01/17 09:17:30;;;;;;;6.03;5.00;;;-0.10;99.90;;;;;;5008129;28;20498;-60
2024/01/17 09:19:58;;;;;;;5.20;4.63;;;0.00;99.90;;;;;;5015453;28;20554;-59
2024/01/17 09:22:26;;;;;;;6.03;4.87;;;0.00;99.90;;;;;;5017951;28;20711;-60
2024/01/17 09:24:54;;;;;;;7.87;5.20;;;0.00;99.90;;;;;;5016303;28;20960;-62
2024/01/17 09:27:22;;;;;;;8.03;5.17;;;0.00;99.90;;;;;;5016120;28;20992;-61
2024/01/17 09:29:50;;;;;;;6.00;4.60;;;0.00;99.90;;;;;;5015217;28;20529;-62
2024/01/17 09:32:18;;;;;;;8.20;4.87;;;0.00;99.90;;;;;;5031592;28;20523;-62
2024/01/17 09:34:51;;;;;;;6.03;4.80;;;0.10;99.90;;;;;;5039632;28;20475;-61
2024/01/17 09:37:20;;;;;;;7.47;5.00;;;0.10;99.90;;;;;;5037754;28;20492;-60
2024/01/17 09:39:48;;;;;;;6.03;5.30;;;0.10;99.90;;;;;;5038564;28;20495;-61
2024/01/17 09:42:17;;;;;;;8.47;4.97;;;0.10;99.90;;;;;;5032677;28;20538;-61
2024/01/17 09:44:45;;;;;;;5.53;4.60;;;0.10;99.90;;;;;;5024615;28;20464;-60
2024/01/17 09:47:16;;;;;;;8.80;5.00;;;0.10;99.90;;;;;;5029657;28;20498;-59
2024/01/17 09:49:45;;;;;;;5.70;4.63;;;0.10;99.90;;;;;;5032324;28;20467;-61
2024/01/17 09:52:17;;;;;;;7.93;5.07;;;0.10;99.90;;;;;;5017970;28;20503;-60
2024/01/17 09:54:47;;;;;;;7.27;4.97;;;0.20;99.90;;;;;;5024710;28;20490;-62
2024/01/17 09:57:22;;;;;;;8.70;5.40;;;0.20;99.90;;;;;;5031990;28;20530;-60
2024/01/17 09:59:53;;;;;;;6.30;4.93;;;0.20;99.90;;;;;;5031936;28;20756;-61
2024/01/17 10:02:21;;;;;;;6.60;4.97;;;0.20;99.90;;;;;;5034697;28;20495;-61
2024/01/17 10:04:50;;;;;;;7.47;5.20;;;0.20;99.90;;;;;;5037330;28;20499;-60
2024/01/17 10:07:19;;;;;;;7.57;4.90;;;0.20;99.90;;;;;;5035709;28;20625;-62
2024/01/17 10:09:47;;;;;;;7.33;5.60;;;0.30;99.90;;;;;;5030314;28;20474;-61
2024/01/17 10:12:18;;;;;;;8.57;5.23;;;0.20;99.90;;;;;;5032964;28;20479;-60
2024/01/17 10:14:47;;;;;;;8.83;5.60;;;0.30;99.90;;;;;;5028256;28;20475;-61
2024/01/17 10:17:15;;;;;;;9.53;5.43;;;0.30;99.90;;;;;;5031767;28;20510;-60
2024/01/17 10:19:43;;;;;;;5.07;4.57;;;0.30;99.90;;;;;;5030179;28;20463;-61
2024/01/17 10:22:12;;;;;;;6.47;5.60;;;0.30;99.90;;;;;;5026817;28;20513;-61
2024/01/17 10:24:42;;;;;;;6.70;5.27;;;0.30;99.90;;;;;;5024766;28;20563;-67
2024/01/17 10:27:10;;;;;;;6.90;5.37;;;0.30;99.90;;;;;;5029929;28;20554;-62
2024/01/17 10:29:40;;;;;;;7.40;5.37;;;0.30;99.90;;;;;;5030314;28;20555;-61
2024/01/17 10:32:10;;;;;;;9.37;6.17;;;0.30;99.90;;;;;;5015536;28;20602;-62
2024/01/17 10:34:38;;;;;;;6.00;5.00;;;0.40;99.90;;;;;;5014040;28;20481;-61
2024/01/17 10:37:11;;;;;;;7.53;6.73;;;0.40;99.90;;;;;;5014409;28;20498;-62
2024/01/17 10:39:41;;;;;;;9.53;5.83;;;0.40;99.90;;;;;;5021124;28;20486;-62
2024/01/17 10:42:19;;;;;;;6.07;5.50;;;0.40;99.90;;;;;;5016459;28;20582;-62
2024/01/17 10:44:47;;;;;;;9.60;6.10;;;0.40;99.90;;;;;;5010472;28;20471;-62
2024/01/17 10:47:15;;;;;;;6.70;5.70;;;0.40;99.90;;;;;;5010907;28;20481;-61
2024/01/17 10:49:43;;;;;;;7.23;5.77;;;0.40;99.90;;;;;;5010886;28;20507;-62
2024/01/17 10:52:15;;;;;;;7.47;6.10;;;0.50;99.90;;;;;;5013688;28;20501;-62
2024/01/17 10:54:50;;;;;;;7.00;5.63;;;0.50;99.90;;;;;;5007579;28;20570;-60
2024/01/17 10:57:20;;;;;;;8.73;6.13;;;0.50;99.90;;;;;;5013758;28;20486;-62
2024/01/17 10:59:49;;;;;;;6.80;5.50;;;0.50;99.90;;;;;;5014201;28;20952;-61
2024/01/17 11:02:20;;;;;;;7.50;5.67;;;0.50;99.90;;;;;;5010984;28;20528;-62
2024/01/17 11:04:56;;;;;;;7.30;6.00;;;0.50;99.90;;;;;;5015494;28;20563;-61
2024/01/17 11:07:24;;;;;;;6.50;5.33;;;0.60;99.90;;;;;;5016261;28;20467;-61
2024/01/17 11:09:54;;;;;;;7.50;6.07;;;0.60;99.90;;;;;;5017612;28;20478;-61
2024/01/17 11:12:23;;;;;;;7.23;5.60;;;0.60;99.90;;;;;;5020115;28;20483;-62
2024/01/17 11:14:54;;;;;;;9.97;6.10;;;0.50;99.90;;;;;;5015370;28;21068;-61
2024/01/17 11:17:23;;;;;;;7.73;5.70;;;0.50;99.90;;;;;;5014135;28;21019;-60
2024/01/17 11:20:07;;;;;;;6.97;5.43;;;0.50;99.90;;;;;;5016928;28;20471;-60
2024/01/17 11:22:37;;;;;;;7.33;5.83;;;0.50;99.90;;;;;;5017360;28;21042;-62
2024/01/17 11:25:18;;;;;;;9.70;5.67;;;0.50;99.90;;;;;;5021522;28;20475;-59
2024/01/17 11:27:51;;;;;;;7.60;5.57;;;0.60;99.90;;;;;;5021981;28;20907;-61
2024/01/17 11:30:41;;;;;;;6.80;5.40;;;0.60;99.90;;;;;;5018114;28;20491;-60
2024/01/17 11:33:11;;;;;;;8.60;6.30;;;0.60;99.90;;;;;;5015824;28;20475;-61
2024/01/17 11:35:44;;;;;;;6.60;5.90;;;0.70;99.90;;;;;;5021979;28;20547;-62
2024/01/17 11:38:29;;;;;;;7.03;5.20;;;0.70;99.90;;;;;;5027333;28;21091;-61
2024/01/17 11:41:01;;;;;;;6.70;5.27;;;0.80;99.90;;;;;;5020208;28;20567;-61
2024/01/17 11:43:31;;;;;;;8.63;5.47;;;0.80;99.90;;;;;;5023586;28;20538;-62
2024/01/17 11:46:00;;;;;;;8.17;6.10;;;0.80;99.90;;;;;;5024286;28;20534;-61
2024/01/17 11:48:30;;;;;;;9.13;6.27;;;0.80;99.90;;;;;;5033116;28;20461;-61
2024/01/17 11:51:00;;;;;;;7.83;6.00;;;0.80;99.90;;;;;;5039896;28;20471;-60
2024/01/17 11:53:30;;;;;;;8.87;6.57;;;0.80;99.90;;;;;;5023259;28;20479;-61
2024/01/17 11:56:02;;;;;;;8.07;6.30;;;0.80;99.90;;;;;;5017496;28;20471;-60
2024/01/17 11:58:41;;;;;;;10.30;7.27;;;0.70;99.90;;;;;;5014976;28;20824;-62
2024/01/17 12:01:12;;;;;;;8.13;6.50;;;0.70;99.90;;;;;;5010924;28;20572;-62
2024/01/17 12:03:41;;;;;;;8.60;6.70;;;0.70;99.90;;;;;;5016278;28;20471;-62
2024/01/17 12:06:11;;;;;;;9.37;6.50;;;0.70;99.90;;;;;;5014728;28;20475;-62
2024/01/17 12:08:40;;;;;;;11.33;6.73;;;0.80;99.90;;;;;;5019413;28;20555;-61
2024/01/17 12:11:09;;;;;;;7.50;6.30;;;0.80;99.90;;;;;;5016228;28;20494;-62
2024/01/17 12:13:38;;;;;;;8.17;6.30;;;0.80;99.90;;;;;;5018770;28;20501;-62
2024/01/17 12:16:08;;;;;;;10.27;6.53;;;0.80;99.90;;;;;;5012283;28;20501;-62
2024/01/17 12:18:37;;;;;;;8.20;7.07;;;0.80;99.90;;;;;;5013680;28;20514;-61
2024/01/17 12:21:06;;;;;;;9.30;6.90;;;0.90;99.90;;;;;;5012510;28;20834;-62
2024/01/17 12:23:35;;;;;;;10.03;6.80;;;0.90;99.90;;;;;;5018416;28;21161;-62
2024/01/17 12:26:04;;;;;;;10.17;6.60;;;0.90;99.90;;;;;;5005776;28;20471;-62
2024/01/17 12:28:33;;;;;;;10.50;7.27;;;0.90;99.90;;;;;;5011748;28;20829;-62
2024/01/17 12:31:03;;;;;;;10.70;6.47;;;0.90;99.90;;;;;;5011198;28;20611;-62
2024/01/17 12:33:33;;;;;;;9.73;6.77;;;0.90;99.90;;;;;;5011469;28;20475;-60
2024/01/17 12:36:03;;;;;;;8.23;6.47;;;0.90;99.90;;;;;;5013009;28;20471;-62
2024/01/17 12:38:33;;;;;;;9.57;6.40;;;0.90;99.90;;;;;;5013882;28;21248;-62
2024/01/17 12:41:03;;;;;;;10.03;6.50;;;0.90;99.90;;;;;;5006316;28;20492;-61
2024/01/17 12:43:34;;;;;;;7.87;6.30;;;1.00;99.90;;;;;;5013671;28;20975;-60
2024/01/17 12:46:03;;;;;;;11.03;6.20;;;1.00;99.90;;;;;;5015892;28;20490;-61
2024/01/17 12:48:31;;;;;;;8.17;6.80;;;1.00;99.90;;;;;;5006175;28;20475;-60
2024/01/17 12:51:05;;;;;;;9.20;6.67;;;1.00;99.90;;;;;;5012385;28;20490;-61